createdAt,value
2022-08-03T00:01:44.934Z,22.60
2022-08-03T00:04:12.376Z,22.50
2022-08-03T00:06:39.437Z,22.50
2022-08-03T00:09:06.546Z,22.40
2022-08-03T00:11:34.272Z,22.40
2022-08-03T00:14:01.877Z,22.40
2022-08-03T00:16:31.437Z,22.40
2022-08-03T00:18:58.415Z,22.40
2022-08-03T00:21:28.826Z,22.40
2022-08-03T00:23:55.982Z,22.40
2022-08-03T00:26:25.453Z,22.30
2022-08-03T00:28:52.481Z,22.40
2022-08-03T00:31:40.108Z,22.30
2022-08-03T00:34:10.860Z,22.30
2022-08-03T00:36:39.734Z,22.30
2022-08-03T00:39:08.793Z,22.20
2022-08-03T00:41:35.789Z,22.20
2022-08-03T00:44:02.806Z,22.20
2022-08-03T00:46:31.960Z,22.10
2022-08-03T00:48:58.939Z,22.10
2022-08-03T00:51:26.195Z,22.00
2022-08-03T00:53:53.154Z,21.90
2022-08-03T00:56:20.078Z,21.90
2022-08-03T00:58:50.138Z,21.90
2022-08-03T01:01:19.335Z,21.90
2022-08-03T01:03:46.406Z,21.90
2022-08-03T01:06:28.189Z,21.80
2022-08-03T01:09:11.438Z,21.80
2022-08-03T01:12:00.501Z,21.80
2022-08-03T01:14:38.814Z,21.80
2022-08-03T01:17:13.504Z,21.80
2022-08-03T01:19:58.449Z,21.80
2022-08-03T01:23:01.347Z,21.70
2022-08-03T01:25:57.795Z,21.70
2022-08-03T01:28:43.825Z,21.70
2022-08-03T01:31:13.556Z,21.70
2022-08-03T01:33:50.499Z,21.60
2022-08-03T01:36:25.113Z,21.60
2022-08-03T01:38:58.675Z,21.60
2022-08-03T01:41:37.187Z,21.60
2022-08-03T01:44:29.321Z,21.50
2022-08-03T01:47:00.939Z,21.50
2022-08-03T01:49:30.496Z,21.50
2022-08-03T01:52:04.953Z,21.50
2022-08-03T01:54:40.891Z,21.50
2022-08-03T01:57:08.826Z,21.50
2022-08-03T01:59:40.427Z,21.40
2022-08-03T02:02:19.515Z,21.40
2022-08-03T02:05:01.814Z,21.40
2022-08-03T02:07:35.684Z,21.40
2022-08-03T02:10:06.475Z,21.40
2022-08-03T02:12:42.051Z,21.30
2022-08-03T02:15:15.124Z,21.30
2022-08-03T02:17:46.722Z,21.30
2022-08-03T02:20:15.402Z,21.30
2022-08-03T02:22:43.790Z,21.30
2022-08-03T02:25:15.293Z,21.20
2022-08-03T02:27:59.087Z,21.10
2022-08-03T02:30:43.997Z,21.10
2022-08-03T02:33:18.353Z,21.10
2022-08-03T02:35:47.649Z,21.10
2022-08-03T02:38:16.920Z,21.10
2022-08-03T02:40:47.146Z,21.10
2022-08-03T02:43:20.570Z,21.00
2022-08-03T02:45:50.500Z,21.00
2022-08-03T02:48:30.842Z,21.00
2022-08-03T02:51:03.143Z,20.90
2022-08-03T02:53:34.366Z,20.90
2022-08-03T02:56:06.331Z,20.90
2022-08-03T02:58:34.077Z,20.90
2022-08-03T03:01:02.049Z,20.90
2022-08-03T03:03:30.646Z,20.90
2022-08-03T03:06:06.693Z,20.90
2022-08-03T03:08:33.716Z,20.90
2022-08-03T03:11:02.301Z,20.90
2022-08-03T03:13:31.325Z,20.90
2022-08-03T03:16:02.825Z,20.80
2022-08-03T03:18:36.900Z,20.80
2022-08-03T03:21:07.228Z,20.80
2022-08-03T03:23:41.044Z,20.80
2022-08-03T03:26:09.290Z,20.80
2022-08-03T03:28:37.338Z,20.80
2022-08-03T03:31:09.046Z,20.80
2022-08-03T03:33:39.096Z,20.80
2022-08-03T03:36:10.245Z,20.80
2022-08-03T03:38:37.579Z,20.80
2022-08-03T03:41:05.727Z,20.70
2022-08-03T03:43:33.122Z,20.70
2022-08-03T03:46:00.814Z,20.70
2022-08-03T03:48:28.549Z,20.70
2022-08-03T03:50:57.303Z,20.70
2022-08-03T03:53:26.639Z,20.70
2022-08-03T03:56:01.594Z,20.70
2022-08-03T03:58:31.975Z,20.60
2022-08-03T04:00:59.478Z,20.50
2022-08-03T04:03:26.514Z,20.50
2022-08-03T04:06:11.699Z,20.50
2022-08-03T04:08:59.673Z,20.50
2022-08-03T04:11:37.812Z,20.40
2022-08-03T04:14:35.413Z,20.30
2022-08-03T04:17:05.837Z,20.30
2022-08-03T04:19:42.529Z,20.30
2022-08-03T04:22:19.870Z,20.30
2022-08-03T04:25:05.839Z,20.30
2022-08-03T04:27:40.922Z,20.30
2022-08-03T04:30:14.708Z,20.30
2022-08-03T04:32:50.705Z,20.30
2022-08-03T04:35:19.077Z,20.40
2022-08-03T04:37:51.815Z,20.40
2022-08-03T04:40:30.682Z,20.40
2022-08-03T04:42:59.993Z,20.40
2022-08-03T04:45:29.344Z,20.40
2022-08-03T04:47:57.365Z,20.40
2022-08-03T04:50:28.177Z,20.40
2022-08-03T04:52:56.213Z,20.40
2022-08-03T04:55:34.485Z,20.40
2022-08-03T04:58:06.401Z,20.40
2022-08-03T05:00:33.392Z,20.50
2022-08-03T05:03:00.331Z,20.50
2022-08-03T05:05:49.972Z,20.50
2022-08-03T05:08:20.625Z,20.50
2022-08-03T05:10:55.449Z,20.60
2022-08-03T05:13:25.870Z,20.60
2022-08-03T05:15:53.547Z,20.60
2022-08-03T05:18:22.962Z,20.70
2022-08-03T05:20:51.963Z,20.70
2022-08-03T05:23:21.410Z,20.70
2022-08-03T05:25:50.745Z,20.80
2022-08-03T05:28:17.772Z,20.90
2022-08-03T05:30:44.853Z,20.90
2022-08-03T05:33:11.946Z,21.00
2022-08-03T05:36:00.477Z,21.00
2022-08-03T05:38:34.869Z,21.10
2022-08-03T05:41:21.214Z,21.10
2022-08-03T05:43:53.894Z,21.20
2022-08-03T05:46:24.729Z,21.30
2022-08-03T05:48:51.869Z,21.30
2022-08-03T05:51:23.621Z,21.40
2022-08-03T05:53:52.710Z,21.50
2022-08-03T05:56:25.441Z,21.60
2022-08-03T05:58:53.170Z,21.70
2022-08-03T06:01:23.810Z,21.80
2022-08-03T06:03:52.096Z,21.90
2022-08-03T06:06:19.733Z,22.10
2022-08-03T06:08:49.381Z,22.20
2022-08-03T06:11:16.634Z,22.40
2022-08-03T06:13:44.417Z,22.60
2022-08-03T06:16:13.894Z,22.90
2022-08-03T06:18:43.137Z,23.20
2022-08-03T06:21:15.420Z,23.50
2022-08-03T06:23:53.375Z,23.80
2022-08-03T06:26:26.932Z,24.10
2022-08-03T06:28:56.731Z,24.30
2022-08-03T06:31:33.334Z,24.50
2022-08-03T06:34:32.098Z,24.70
2022-08-03T06:36:58.623Z,24.80
2022-08-03T06:39:31.332Z,24.90
2022-08-03T06:42:02.662Z,25.10
2022-08-03T06:44:31.772Z,25.30
2022-08-03T06:46:58.847Z,25.60
2022-08-03T06:49:28.840Z,25.90
2022-08-03T06:52:04.442Z,26.30
2022-08-03T06:54:36.501Z,26.60
2022-08-03T06:57:03.821Z,27.00
2022-08-03T07:00:09.450Z,27.40
2022-08-03T07:02:21.053Z,27.80
2022-08-03T07:04:49.340Z,28.20
2022-08-03T07:07:17.515Z,28.60
2022-08-03T07:09:57.336Z,29.00
2022-08-03T07:12:26.257Z,29.40
2022-08-03T07:14:56.694Z,29.80
2022-08-03T07:17:29.883Z,30.10
2022-08-03T07:19:57.635Z,30.50
2022-08-03T07:22:27.320Z,30.80
2022-08-03T07:24:54.345Z,31.10
2022-08-03T07:27:21.425Z,31.40
2022-08-03T07:29:50.894Z,31.70
2022-08-03T07:32:20.045Z,32.10
2022-08-03T07:34:47.004Z,32.40
2022-08-03T07:37:16.134Z,32.70
2022-08-03T07:39:43.040Z,33.00
2022-08-03T07:42:10.122Z,33.30
2022-08-03T07:44:37.286Z,33.60
2022-08-03T07:47:04.317Z,33.90
2022-08-03T07:49:32.489Z,34.20
2022-08-03T07:52:18.223Z,34.40
2022-08-03T07:54:47.646Z,34.70
2022-08-03T07:57:14.503Z,34.90
2022-08-03T08:00:01.954Z,35.10
2022-08-03T08:02:29.602Z,35.30
2022-08-03T08:05:05.012Z,35.50
2022-08-03T08:07:32.898Z,35.70
2022-08-03T08:10:02.091Z,35.80
2022-08-03T08:12:28.994Z,36.00
2022-08-03T08:14:58.901Z,36.10
2022-08-03T08:17:25.851Z,36.20
2022-08-03T08:19:57.920Z,36.40
2022-08-03T08:22:30.515Z,36.50
2022-08-03T08:24:59.756Z,36.70
2022-08-03T08:27:28.629Z,36.80
2022-08-03T08:30:20.673Z,36.90
2022-08-03T08:32:49.230Z,36.90
2022-08-03T08:35:17.595Z,37.00
2022-08-03T08:37:50.950Z,37.00
2022-08-03T08:40:22.449Z,37.10
2022-08-03T08:42:59.109Z,37.20
2022-08-03T08:45:26.708Z,37.10
2022-08-03T08:48:04.379Z,36.90
2022-08-03T08:50:34.063Z,36.70
2022-08-03T08:53:09.902Z,36.50
2022-08-03T08:55:58.178Z,36.50
2022-08-03T08:58:38.692Z,36.50
2022-08-03T09:01:08.576Z,36.50
2022-08-03T09:03:36.043Z,36.40
2022-08-03T09:06:06.776Z,36.40
2022-08-03T09:08:36.776Z,36.20
2022-08-03T09:11:04.395Z,36.10
2022-08-03T09:13:31.506Z,36.10
2022-08-03T09:16:19.398Z,35.90
2022-08-03T09:18:53.308Z,35.90
2022-08-03T09:21:32.608Z,35.90
2022-08-03T09:24:08.404Z,35.90
2022-08-03T09:26:42.378Z,35.80
2022-08-03T09:29:15.442Z,35.70
2022-08-03T09:31:47.189Z,35.50
2022-08-03T09:34:18.325Z,35.40
2022-08-03T09:36:48.569Z,35.40
2022-08-03T09:39:40.639Z,35.40
2022-08-03T09:42:18.375Z,35.40
2022-08-03T09:44:54.839Z,35.50
2022-08-03T09:47:33.634Z,35.40
2022-08-03T09:50:12.902Z,35.40
2022-08-03T09:52:49.833Z,35.50
2022-08-03T09:56:34.257Z,35.60
2022-08-03T09:58:11.090Z,35.70
2022-08-03T10:01:23.968Z,35.70
2022-08-03T10:04:03.811Z,35.70
2022-08-03T10:06:31.694Z,35.70
2022-08-03T10:09:15.079Z,35.70
2022-08-03T10:11:44.156Z,35.70
2022-08-03T10:14:19.352Z,35.70
2022-08-03T10:16:48.024Z,35.80
2022-08-03T10:19:15.736Z,35.70
2022-08-03T10:21:51.272Z,35.70
2022-08-03T10:24:27.170Z,35.70
2022-08-03T10:27:05.491Z,35.80
2022-08-03T10:29:38.967Z,35.80
2022-08-03T10:32:19.122Z,35.90
2022-08-03T10:34:50.888Z,35.90
2022-08-03T10:37:33.179Z,35.80
2022-08-03T10:40:01.167Z,35.80
2022-08-03T10:42:31.405Z,35.90
2022-08-03T10:45:05.999Z,35.90
2022-08-03T10:47:34.523Z,36.00
2022-08-03T10:50:04.894Z,36.00
2022-08-03T10:52:39.487Z,36.00
2022-08-03T10:55:49.210Z,35.90
2022-08-03T10:58:30.859Z,35.90
2022-08-03T11:00:57.957Z,35.90
2022-08-03T11:03:27.958Z,36.00
2022-08-03T11:06:21.931Z,35.90
2022-08-03T11:08:51.085Z,36.00
2022-08-03T11:11:17.925Z,36.00
2022-08-03T11:14:16.126Z,36.10
2022-08-03T11:16:53.126Z,36.10
2022-08-03T11:19:28.027Z,36.10
2022-08-03T11:21:57.642Z,36.10
2022-08-03T11:24:39.329Z,36.20
2022-08-03T11:27:21.226Z,36.20
2022-08-03T11:30:20.277Z,36.20
2022-08-03T11:32:59.453Z,36.10
2022-08-03T11:35:43.861Z,36.10
2022-08-03T11:38:12.264Z,36.10
2022-08-03T11:40:49.956Z,36.20
2022-08-03T11:43:25.751Z,36.30
2022-08-03T11:46:04.837Z,36.30
2022-08-03T11:48:49.128Z,36.20
2022-08-03T11:51:26.139Z,36.10
2022-08-03T11:53:57.697Z,36.10
2022-08-03T11:56:28.647Z,36.20
2022-08-03T11:59:19.973Z,36.10
2022-08-03T12:01:46.083Z,36.00
2022-08-03T12:04:13.032Z,35.90
2022-08-03T12:07:00.323Z,35.80
2022-08-03T12:09:29.613Z,35.90
2022-08-03T12:12:00.460Z,35.80
2022-08-03T12:14:49.730Z,35.80
2022-08-03T12:17:21.798Z,35.70
2022-08-03T12:19:53.997Z,35.60
2022-08-03T12:22:40.817Z,35.60
2022-08-03T12:25:38.774Z,35.60
2022-08-03T12:28:37.044Z,35.60
2022-08-03T12:31:09.665Z,35.60
2022-08-03T12:34:04.180Z,35.60
2022-08-03T12:36:36.295Z,35.70
2022-08-03T12:39:12.448Z,35.70
2022-08-03T12:41:41.045Z,35.70
2022-08-03T12:44:11.672Z,35.60
2022-08-03T12:46:45.363Z,35.40
2022-08-03T12:49:17.530Z,35.20
2022-08-03T12:51:45.352Z,35.10
2022-08-03T12:54:25.323Z,34.90
2022-08-03T12:57:06.388Z,34.80
2022-08-03T12:59:34.742Z,34.80
2022-08-03T13:02:09.449Z,34.70
2022-08-03T13:04:38.032Z,34.50
2022-08-03T13:07:14.268Z,34.40
2022-08-03T13:09:46.139Z,34.30
2022-08-03T13:12:27.044Z,34.30
2022-08-03T13:15:00.281Z,34.30
2022-08-03T13:17:28.121Z,34.30
2022-08-03T13:19:55.099Z,34.20
2022-08-03T13:22:29.018Z,34.10
2022-08-03T13:25:01.168Z,33.90
2022-08-03T13:28:03.422Z,33.70
2022-08-03T13:30:30.137Z,33.60
2022-08-03T13:33:00.792Z,33.50
2022-08-03T13:35:27.779Z,33.60
2022-08-03T13:37:54.736Z,33.60
2022-08-03T13:40:23.669Z,33.60
2022-08-03T13:42:56.902Z,33.70
2022-08-03T13:45:24.552Z,33.80
2022-08-03T13:47:53.985Z,33.80
2022-08-03T13:50:20.938Z,33.90
2022-08-03T13:52:52.812Z,34.00
2022-08-03T13:55:19.747Z,34.00
2022-08-03T13:58:03.293Z,34.10
2022-08-03T14:00:36.349Z,34.20
2022-08-03T14:03:12.607Z,34.30
2022-08-03T14:05:41.785Z,34.30
2022-08-03T14:08:12.077Z,34.40
2022-08-03T14:10:43.098Z,34.40
2022-08-03T14:13:17.874Z,34.50
2022-08-03T14:15:51.241Z,34.50
2022-08-03T14:18:27.855Z,34.50
2022-08-03T14:21:06.687Z,34.40
2022-08-03T14:23:38.314Z,34.20
2022-08-03T14:26:09.518Z,34.00
2022-08-03T14:28:36.531Z,33.90
2022-08-03T14:31:08.227Z,33.80
2022-08-03T14:33:45.024Z,33.70
2022-08-03T14:36:11.917Z,33.70
2022-08-03T14:38:38.807Z,33.70
2022-08-03T14:41:12.284Z,33.70
2022-08-03T14:44:01.643Z,33.70
2022-08-03T14:46:32.239Z,33.70
2022-08-03T14:50:28.572Z,33.60
2022-08-03T14:51:53.520Z,33.60
2022-08-03T14:54:25.788Z,33.60
2022-08-03T14:56:52.819Z,33.60
2022-08-03T14:59:22.255Z,33.50
2022-08-03T15:02:06.301Z,33.50
2022-08-03T15:04:34.735Z,33.50
2022-08-03T15:07:05.300Z,33.40
2022-08-03T15:09:32.495Z,33.40
2022-08-03T15:11:59.709Z,33.40
2022-08-03T15:14:33.205Z,33.30
2022-08-03T15:17:06.653Z,33.20
2022-08-03T15:20:03.403Z,33.10
2022-08-03T15:22:34.809Z,33.00
2022-08-03T15:26:03.759Z,32.80
2022-08-03T15:28:03.922Z,32.70
2022-08-03T15:30:36.847Z,32.70
2022-08-03T15:33:04.658Z,32.70
2022-08-03T15:35:34.024Z,32.70
2022-08-03T15:38:09.422Z,32.70
2022-08-03T15:40:41.736Z,32.70
2022-08-03T15:43:08.708Z,32.80
2022-08-03T15:45:38.373Z,32.80
2022-08-03T15:48:06.332Z,32.90
2022-08-03T15:50:33.690Z,32.90
2022-08-03T15:53:00.559Z,32.90
2022-08-03T15:55:27.725Z,32.90
2022-08-03T15:59:10.361Z,32.80
2022-08-03T16:00:48.093Z,32.70
2022-08-03T16:03:28.422Z,32.60
2022-08-03T16:05:55.605Z,32.60
2022-08-03T16:08:24.865Z,32.60
2022-08-03T16:10:55.235Z,32.60
2022-08-03T16:14:13.123Z,32.60
2022-08-03T16:16:25.545Z,32.60
2022-08-03T16:18:55.602Z,32.50
2022-08-03T16:21:24.764Z,32.50
2022-08-03T16:24:00.463Z,32.50
2022-08-03T16:26:31.824Z,32.50
2022-08-03T16:29:04.505Z,32.50
2022-08-03T16:31:40.152Z,32.50
2022-08-03T16:34:18.581Z,32.50
2022-08-03T16:36:46.142Z,32.50
2022-08-03T16:39:15.626Z,32.50
2022-08-03T16:41:55.028Z,32.50
2022-08-03T16:44:36.791Z,32.50
2022-08-03T16:47:06.787Z,32.50
2022-08-03T16:49:54.498Z,32.60
2022-08-03T16:52:26.668Z,32.50
2022-08-03T16:55:01.656Z,32.50
2022-08-03T16:57:59.523Z,32.50
2022-08-03T17:00:33.270Z,32.50
2022-08-03T17:03:16.386Z,32.50
2022-08-03T17:05:49.532Z,32.40
2022-08-03T17:08:26.075Z,32.40
2022-08-03T17:10:54.969Z,32.40
2022-08-03T17:13:22.751Z,32.40
2022-08-03T17:15:57.709Z,32.30
2022-08-03T17:18:47.537Z,32.30
2022-08-03T17:21:17.629Z,32.30
2022-08-03T17:24:20.401Z,32.30
2022-08-03T17:26:50.899Z,32.30
2022-08-03T17:29:24.977Z,32.20
2022-08-03T17:31:55.115Z,32.20
2022-08-03T17:34:26.679Z,32.20
2022-08-03T17:37:04.807Z,32.20
2022-08-03T17:39:57.708Z,32.10
2022-08-03T17:42:30.615Z,32.10
2022-08-03T17:45:03.554Z,32.10
2022-08-03T17:47:41.769Z,32.10
2022-08-03T17:50:24.322Z,32.00
2022-08-03T17:53:07.326Z,32.00
2022-08-03T17:55:56.778Z,32.00
2022-08-03T17:59:01.841Z,31.90
2022-08-03T18:02:30.398Z,31.90
2022-08-03T18:05:16.440Z,31.80
2022-08-03T18:07:59.547Z,31.80
2022-08-03T18:10:35.747Z,31.80
2022-08-03T18:13:21.871Z,31.80
2022-08-03T18:16:01.089Z,31.70
2022-08-03T18:18:40.977Z,31.70
2022-08-03T18:21:17.343Z,31.60
2022-08-03T18:23:50.924Z,31.60
2022-08-03T18:26:18.670Z,31.50
2022-08-03T18:28:47.081Z,31.40
2022-08-03T18:32:00.143Z,31.40
2022-08-03T18:34:17.446Z,31.20
2022-08-03T18:36:59.515Z,31.10
2022-08-03T18:39:28.474Z,31.00
2022-08-03T18:41:56.149Z,30.90
2022-08-03T18:44:45.647Z,30.70
2022-08-03T18:47:23.416Z,30.60
2022-08-03T18:50:08.452Z,30.40
2022-08-03T18:52:45.675Z,30.30
2022-08-03T18:58:25.923Z,30.00
2022-08-03T19:01:59.605Z,29.80
2022-08-03T19:04:28.312Z,29.70
2022-08-03T19:07:08.121Z,29.70
2022-08-03T19:09:54.398Z,29.60
2022-08-03T19:12:49.881Z,29.50
2022-08-03T19:15:36.104Z,29.50
2022-08-03T19:18:08.830Z,29.40
2022-08-03T19:20:38.321Z,29.40
2022-08-03T19:23:06.597Z,29.30
2022-08-03T19:25:40.375Z,29.30
2022-08-03T19:28:09.420Z,29.20
2022-08-03T19:30:40.015Z,29.10
2022-08-03T19:33:10.998Z,29.00
2022-08-03T19:35:55.039Z,28.80
2022-08-03T19:38:28.712Z,28.80
2022-08-03T19:41:03.536Z,28.70
2022-08-03T19:43:52.627Z,28.60
2022-08-03T19:46:30.514Z,28.50
2022-08-03T19:49:16.420Z,28.40
2022-08-03T19:52:00.784Z,28.30
2022-08-03T19:54:52.881Z,28.20
2022-08-03T19:57:23.997Z,28.10
2022-08-03T19:59:52.904Z,28.10
2022-08-03T20:02:26.496Z,28.10
2022-08-03T20:05:00.781Z,28.00
2022-08-03T20:07:32.856Z,27.90
2022-08-03T20:10:05.894Z,27.90
2022-08-03T20:12:39.406Z,27.80
2022-08-03T20:15:31.691Z,27.80
2022-08-03T20:17:59.674Z,27.70
2022-08-03T20:20:36.287Z,27.60
2022-08-03T20:23:19.003Z,27.60
2022-08-03T20:25:59.127Z,27.50
2022-08-03T20:28:32.230Z,27.50
2022-08-03T20:31:02.036Z,27.40
2022-08-03T20:33:48.711Z,27.40
2022-08-03T20:36:18.723Z,27.30
2022-08-03T20:38:48.298Z,27.20
2022-08-03T20:41:17.344Z,27.20
2022-08-03T20:43:45.670Z,27.10
2022-08-03T20:46:29.063Z,27.10
2022-08-03T20:49:07.271Z,27.00
2022-08-03T20:51:49.871Z,27.00
2022-08-03T20:54:29.928Z,27.00
2022-08-03T20:57:03.601Z,26.90
2022-08-03T20:59:46.884Z,26.90
2022-08-03T21:02:30.557Z,26.80
2022-08-03T21:05:03.823Z,26.80
2022-08-03T21:08:05.813Z,26.70
2022-08-03T21:10:41.970Z,26.60
2022-08-03T21:13:00.961Z,30.10
2022-08-03T21:16:11.924Z,26.50
2022-08-03T21:18:52.226Z,26.40
2022-08-03T21:21:21.861Z,26.40
2022-08-03T21:23:54.992Z,26.30
2022-08-03T21:26:25.572Z,26.30
2022-08-03T21:28:57.587Z,26.20
2022-08-03T21:31:26.729Z,26.20
2022-08-03T21:34:04.172Z,26.10
2022-08-03T21:36:34.741Z,26.10
2022-08-03T21:39:07.504Z,26.00
2022-08-03T21:41:36.147Z,26.00
2022-08-03T21:44:05.058Z,26.00
2022-08-03T21:46:39.950Z,25.90
2022-08-03T21:50:05.118Z,25.90
2022-08-03T21:52:05.373Z,25.80
2022-08-03T21:54:42.113Z,25.80
2022-08-03T21:57:25.933Z,25.70
2022-08-03T21:59:57.328Z,25.70
2022-08-03T22:02:32.041Z,25.70
2022-08-03T22:04:59.396Z,25.70
2022-08-03T22:07:31.828Z,25.60
2022-08-03T22:10:02.214Z,25.60
2022-08-03T22:12:34.391Z,25.50
2022-08-03T22:15:06.330Z,25.50
2022-08-03T22:17:53.808Z,25.40
2022-08-03T22:20:28.630Z,25.30
2022-08-03T22:23:05.322Z,25.30
2022-08-03T22:25:38.449Z,25.20
2022-08-03T22:28:15.207Z,25.20
2022-08-03T22:30:43.323Z,25.20
2022-08-03T22:33:16.483Z,25.10
2022-08-03T22:35:49.259Z,25.10
2022-08-03T22:38:20.843Z,25.00
2022-08-03T22:40:52.458Z,25.00
2022-08-03T22:43:29.503Z,25.00
2022-08-03T22:46:11.197Z,25.00
2022-08-03T22:48:41.343Z,24.90
2022-08-03T22:51:10.055Z,25.00
2022-08-03T22:53:37.184Z,24.90
2022-08-03T22:56:10.123Z,24.90
2022-08-03T22:58:41.565Z,24.90
2022-08-03T23:01:11.637Z,24.80
2022-08-03T23:04:01.281Z,24.80
2022-08-03T23:06:36.987Z,24.70
2022-08-03T23:09:12.981Z,24.60
2022-08-03T23:11:46.358Z,24.60
2022-08-03T23:14:19.278Z,24.60
2022-08-03T23:16:50.640Z,24.50
2022-08-03T23:19:25.065Z,24.50
2022-08-03T23:22:04.168Z,24.40
2022-08-03T23:24:36.935Z,24.40
2022-08-03T23:27:06.812Z,24.40
2022-08-03T23:29:42.799Z,24.40
2022-08-03T23:32:11.484Z,24.40
2022-08-03T23:35:01.296Z,24.40
2022-08-03T23:37:31.740Z,24.30
2022-08-03T23:39:59.486Z,24.30
2022-08-03T23:42:29.551Z,24.30
2022-08-03T23:45:05.794Z,24.30
2022-08-03T23:47:47.488Z,24.30
2022-08-03T23:50:15.654Z,24.20
2022-08-03T23:52:57.286Z,24.20
2022-08-03T23:55:31.255Z,24.10
2022-08-03T23:58:00.778Z,24.10
